Time;durP1;ratioP1;P1;durP2;ratioP2;P2;SDS_P1;SDS_P2;PMS_P1;PMS_P2;Temp;Humidity;BMP_temperature;BMP_pressure;BME280_temperature;BME280_humidity;BME280_pressure;Samples;Min_cycle;Max_cycle;Signal;HPM_P1;HPM_P2
2023/12/05 00:00:35;;;;;;;12.83;9.07;;;-0.50;99.90;;;;;;5110425;28;20179;-77
2023/12/05 00:03:02;;;;;;;11.70;8.37;;;-0.50;99.90;;;;;;5077423;28;20172;-76
2023/12/05 00:05:28;;;;;;;14.90;9.07;;;-0.50;99.90;;;;;;5095105;28;20181;-78
2023/12/05 00:07:55;;;;;;;14.63;9.17;;;-0.60;99.90;;;;;;5095674;28;20221;-79
2023/12/05 00:10:21;;;;;;;15.03;9.10;;;-0.60;99.90;;;;;;5096976;28;20181;-77
2023/12/05 00:12:47;;;;;;;14.27;9.37;;;-0.50;99.90;;;;;;5097452;28;20180;-76
2023/12/05 00:15:13;;;;;;;15.23;10.17;;;-0.60;99.90;;;;;;5079005;28;20199;-78
2023/12/05 00:17:39;;;;;;;14.10;9.37;;;-0.60;99.90;;;;;;5096543;28;20211;-77
2023/12/05 00:20:05;;;;;;;13.57;9.37;;;-0.70;99.90;;;;;;5096182;28;20502;-77
2023/12/05 00:22:31;;;;;;;13.73;8.90;;;-0.70;99.90;;;;;;5096669;28;20525;-78
2023/12/05 00:24:57;;;;;;;14.47;8.50;;;-0.80;99.90;;;;;;5096573;28;20221;-78
2023/12/05 00:27:23;;;;;;;11.40;8.67;;;-0.80;99.90;;;;;;5097129;28;20176;-75
2023/12/05 00:29:49;;;;;;;11.57;8.97;;;-0.80;99.90;;;;;;5077809;28;20243;-78
2023/12/05 00:32:15;;;;;;;15.33;9.20;;;-0.80;99.90;;;;;;5096350;28;20322;-78
2023/12/05 00:34:46;;;;;;;11.37;8.83;;;-0.80;99.90;;;;;;5079749;28;20628;-78
2023/12/05 00:37:12;;;;;;;14.10;8.47;;;-0.80;99.90;;;;;;5102893;28;20251;-77
2023/12/05 00:39:38;;;;;;;11.50;8.57;;;-0.90;99.90;;;;;;5100944;28;20525;-77
2023/12/05 00:42:04;;;;;;;13.77;9.23;;;-0.80;99.90;;;;;;5099064;28;20177;-77
2023/12/05 00:44:30;;;;;;;13.63;8.97;;;-0.70;99.90;;;;;;5097443;28;20590;-77
2023/12/05 00:46:55;;;;;;;13.17;9.27;;;-0.70;99.90;;;;;;5096431;28;20169;-76
2023/12/05 00:49:21;;;;;;;11.43;8.33;;;-0.60;99.90;;;;;;5077926;28;20536;-76
2023/12/05 00:51:47;;;;;;;13.27;8.87;;;-0.60;99.90;;;;;;5095421;28;20205;-77
2023/12/05 00:54:12;;;;;;;13.67;8.90;;;-0.60;99.90;;;;;;5095942;28;20251;-77
2023/12/05 00:56:38;;;;;;;11.67;8.67;;;-0.80;99.90;;;;;;5096841;28;20601;-76
2023/12/05 00:59:04;;;;;;;11.97;8.73;;;-0.90;99.90;;;;;;5096058;28;20177;-75
2023/12/05 01:01:30;;;;;;;15.53;9.30;;;-0.90;99.90;;;;;;5095107;28;20717;-75
2023/12/05 01:03:56;;;;;;;13.83;9.07;;;-0.90;99.90;;;;;;5096316;28;20179;-77
2023/12/05 01:06:23;;;;;;;13.17;8.83;;;-0.90;99.90;;;;;;5095893;28;20177;-75
2023/12/05 01:08:49;;;;;;;13.97;9.03;;;-0.90;99.90;;;;;;5111157;28;20227;-77
2023/12/05 01:11:18;;;;;;;12.80;9.10;;;-0.90;99.90;;;;;;5114837;28;20207;-77
2023/12/05 01:13:44;;;;;;;15.27;10.03;;;-0.90;99.90;;;;;;5123637;28;20208;-75
2023/12/05 01:16:10;;;;;;;13.77;8.73;;;-0.90;99.90;;;;;;5119399;28;20237;-75
2023/12/05 01:18:37;;;;;;;13.53;9.13;;;-1.00;99.90;;;;;;5115882;28;20176;-77
2023/12/05 01:21:03;;;;;;;13.97;9.23;;;-1.10;99.90;;;;;;5114523;28;20179;-76
2023/12/05 01:23:29;;;;;;;13.30;9.63;;;-1.10;99.90;;;;;;5114080;28;20264;-75
2023/12/05 01:25:55;;;;;;;14.70;10.13;;;-1.10;99.90;;;;;;5115488;28;20186;-77
2023/12/05 01:28:21;;;;;;;13.40;9.53;;;-1.10;99.90;;;;;;5094907;28;20629;-78
2023/12/05 01:30:46;;;;;;;14.30;9.63;;;-1.20;99.90;;;;;;5094744;28;20219;-77
2023/12/05 01:33:13;;;;;;;12.93;9.47;;;-1.10;99.90;;;;;;5094225;28;20189;-78
2023/12/05 01:35:38;;;;;;;13.50;9.67;;;-1.10;99.90;;;;;;5094864;28;20168;-78
2023/12/05 01:38:04;;;;;;;13.53;9.97;;;1.10;99.90;;;;;;5094641;28;20271;-77
2023/12/05 01:40:30;;;;;;;13.20;9.53;;;-1.10;99.90;;;;;;5097975;28;20168;-77
2023/12/05 01:42:56;;;;;;;12.60;9.03;;;-1.20;99.90;;;;;;5095978;28;20337;-77
2023/12/05 01:45:22;;;;;;;14.07;9.50;;;-1.10;99.90;;;;;;5093381;28;20180;-78
2023/12/05 01:47:48;;;;;;;15.93;9.77;;;-1.00;99.90;;;;;;5095529;28;20209;-78
2023/12/05 01:50:17;;;;;;;16.20;10.40;;;-0.90;99.90;;;;;;5097599;28;20176;-78
2023/12/05 01:52:49;;;;;;;15.77;10.30;;;-0.90;99.90;;;;;;5113703;28;20255;-79
2023/12/05 01:55:15;;;;;;;13.33;9.47;;;-0.80;99.90;;;;;;5095038;28;20190;-77
2023/12/05 01:57:42;;;;;;;14.80;9.80;;;-0.70;99.90;;;;;;5093620;28;20176;-77
2023/12/05 02:00:08;;;;;;;14.23;9.63;;;-0.70;99.90;;;;;;5094445;28;20168;-79
2023/12/05 02:02:35;;;;;;;14.03;9.77;;;-0.80;99.90;;;;;;5093875;28;20636;-79
2023/12/05 02:05:04;;;;;;;14.60;10.23;;;-1.00;99.90;;;;;;5093764;28;20229;-77
2023/12/05 02:07:31;;;;;;;11.90;9.13;;;-1.00;99.90;;;;;;5092388;28;20243;-78
2023/12/05 02:09:57;;;;;;;14.20;9.97;;;-0.90;99.90;;;;;;5094497;28;20180;-77
2023/12/05 02:12:22;;;;;;;11.57;9.27;;;-0.80;99.90;;;;;;5100238;28;20211;-77
2023/12/05 02:14:48;;;;;;;13.67;9.83;;;-0.90;99.90;;;;;;5097780;28;20699;-78
2023/12/05 02:17:41;;;;;;;16.90;9.77;;;-0.80;99.90;;;;;;5096714;28;20167;-78
2023/12/05 02:20:41;;;;;;;13.97;10.23;;;-0.70;99.90;;;;;;5094599;28;20507;-78
2023/12/05 02:23:20;;;;;;;15.27;9.77;;;-0.70;99.90;;;;;;5095841;28;20183;-77
2023/12/05 02:26:13;;;;;;;14.60;9.50;;;-0.70;99.90;;;;;;5098884;28;20171;-79
2023/12/05 02:28:40;;;;;;;15.37;10.57;;;-0.70;99.90;;;;;;5105693;27;20236;-76
2023/12/05 02:31:06;;;;;;;17.53;10.10;;;-0.70;99.90;;;;;;5114487;28;20293;-77
2023/12/05 02:33:33;;;;;;;12.43;9.50;;;-0.70;99.90;;;;;;5118518;28;20624;-79
2023/12/05 02:36:14;;;;;;;13.60;9.57;;;-0.70;99.90;;;;;;5115584;28;20215;-78
2023/12/05 02:38:52;;;;;;;14.93;9.67;;;-0.70;99.90;;;;;;5114577;28;20171;-77
2023/12/05 02:41:24;;;;;;;16.27;10.00;;;-0.70;99.90;;;;;;5113953;28;20167;-78
2023/12/05 02:43:58;;;;;;;13.00;9.73;;;-0.70;99.90;;;;;;5115569;28;20181;-79
2023/12/05 02:46:25;;;;;;;15.17;9.97;;;-0.70;99.90;;;;;;5114955;28;20193;-78
2023/12/05 02:48:53;;;;;;;14.70;10.07;;;-0.70;99.90;;;;;;5114293;28;20168;-77
2023/12/05 02:51:19;;;;;;;18.30;9.27;;;-0.80;99.90;;;;;;5115459;28;20220;-77
2023/12/05 02:53:45;;;;;;;14.47;9.27;;;-0.80;99.90;;;;;;5116308;28;20272;-77
2023/12/05 02:56:11;;;;;;;14.17;9.43;;;-0.90;99.90;;;;;;5116525;28;20661;-77
2023/12/05 02:58:36;;;;;;;13.70;9.50;;;-0.90;99.90;;;;;;5114839;28;20638;-79
2023/12/05 03:01:02;;;;;;;15.17;9.60;;;-0.90;99.90;;;;;;5113806;28;20171;-79
2023/12/05 03:03:28;;;;;;;15.63;10.00;;;-1.00;99.90;;;;;;5114066;28;20258;-77
2023/12/05 03:05:54;;;;;;;15.57;9.93;;;-1.10;99.90;;;;;;5112044;28;20168;-77
2023/12/05 03:08:20;;;;;;;14.00;9.73;;;-1.10;99.90;;;;;;5112239;28;20235;-79
2023/12/05 03:10:45;;;;;;;13.67;9.27;;;-1.10;99.90;;;;;;5113655;28;20608;-79
2023/12/05 03:13:11;;;;;;;15.43;9.73;;;-1.10;99.90;;;;;;5113362;28;20198;-77
2023/12/05 03:15:37;;;;;;;13.97;9.37;;;-1.10;99.90;;;;;;5113766;28;20194;-76
2023/12/05 03:18:02;;;;;;;11.13;8.87;;;-1.00;99.90;;;;;;5115707;28;20170;-78
2023/12/05 03:20:28;;;;;;;13.87;9.70;;;-0.90;99.90;;;;;;5128415;28;20171;-78
2023/12/05 03:22:54;;;;;;;11.23;9.53;;;-1.00;99.90;;;;;;5114023;28;20176;-78
2023/12/05 03:25:20;;;;;;;12.63;9.13;;;-1.10;99.90;;;;;;5113881;28;20172;-79
2023/12/05 03:27:48;;;;;;;12.20;9.47;;;-1.20;99.90;;;;;;5113708;28;20556;-78
2023/12/05 03:30:14;;;;;;;13.63;9.60;;;-1.10;99.90;;;;;;5113550;28;20665;-77
2023/12/05 03:32:39;;;;;;;12.97;9.30;;;-1.10;99.90;;;;;;5106734;28;20206;-77
2023/12/05 03:35:05;;;;;;;14.07;9.33;;;-1.20;99.90;;;;;;5108805;28;20203;-78
2023/12/05 03:37:31;;;;;;;13.00;9.47;;;-1.20;99.90;;;;;;5109776;28;20212;-78
2023/12/05 03:39:57;;;;;;;14.67;9.43;;;-1.20;99.90;;;;;;5100183;28;20232;-79
2023/12/05 03:42:26;;;;;;;11.10;8.97;;;-1.20;99.90;;;;;;5094548;28;20650;-77
2023/12/05 03:44:51;;;;;;;13.13;9.10;;;-1.20;99.90;;;;;;5096113;28;20695;-79
2023/12/05 03:47:17;;;;;;;14.13;9.40;;;-1.20;99.90;;;;;;5096257;28;20202;-77
2023/12/05 03:49:43;;;;;;;14.73;9.00;;;-1.20;99.90;;;;;;5094892;28;20200;-79
2023/12/05 03:52:09;;;;;;;11.27;8.47;;;-1.10;99.90;;;;;;5101735;28;20269;-77
2023/12/05 03:54:35;;;;;;;10.60;8.53;;;-0.90;99.90;;;;;;5101665;28;20259;-75
2023/12/05 03:57:00;;;;;;;12.63;9.43;;;-0.90;99.90;;;;;;5109349;28;20180;-78
2023/12/05 03:59:26;;;;;;;15.00;9.70;;;-0.90;99.90;;;;;;5100250;28;20180;-80
2023/12/05 04:01:52;;;;;;;13.77;9.57;;;-0.80;99.90;;;;;;5097207;28;20259;-79
2023/12/05 04:04:17;;;;;;;15.07;10.23;;;-0.90;99.90;;;;;;5097534;28;20180;-78
2023/12/05 04:06:43;;;;;;;12.90;9.57;;;-0.90;99.90;;;;;;5098883;28;20258;-77
2023/12/05 04:09:09;;;;;;;13.53;10.07;;;-0.80;99.90;;;;;;5083731;28;20264;-77
2023/12/05 04:11:35;;;;;;;17.70;10.07;;;-0.80;99.90;;;;;;5084342;28;20207;-77
2023/12/05 04:14:01;;;;;;;16.37;10.80;;;-0.90;99.90;;;;;;5059359;28;20221;-79
2023/12/05 04:16:27;;;;;;;14.83;10.07;;;-0.90;99.90;;;;;;5077390;28;20185;-78
2023/12/05 04:18:53;;;;;;;13.63;9.37;;;-1.00;99.90;;;;;;5076139;28;20204;-79
2023/12/05 04:21:19;;;;;;;18.13;10.63;;;-0.90;99.90;;;;;;5076504;28;20177;-78
2023/12/05 04:23:46;;;;;;;15.30;10.30;;;-0.80;99.90;;;;;;5076658;28;20165;-78
2023/12/05 04:26:19;;;;;;;14.70;10.13;;;-0.60;99.90;;;;;;5076422;28;20170;-79
2023/12/05 04:28:45;;;;;;;14.10;9.70;;;-0.70;99.90;;;;;;5076260;28;20170;-80
2023/12/05 04:31:11;;;;;;;13.47;10.20;;;-0.60;99.90;;;;;;5075939;28;20203;-77
2023/12/05 04:33:41;;;;;;;15.93;10.40;;;-0.60;99.90;;;;;;5076073;28;20169;-78
2023/12/05 04:36:07;;;;;;;14.77;9.77;;;-0.60;99.90;;;;;;5076354;28;20170;-77
2023/12/05 04:38:36;;;;;;;11.73;9.10;;;-0.60;99.90;;;;;;5076429;28;20188;-79
2023/12/05 04:41:05;;;;;;;13.70;9.57;;;-0.60;99.90;;;;;;5058362;28;20188;-78
2023/12/05 04:43:31;;;;;;;15.63;9.97;;;-0.60;99.90;;;;;;5076741;28;20170;-76
2023/12/05 04:45:57;;;;;;;16.70;10.70;;;-0.60;99.90;;;;;;5077393;28;20610;-78
2023/12/05 04:48:26;;;;;;;12.10;9.43;;;-0.60;99.90;;;;;;5077004;28;20969;-79
2023/12/05 04:50:52;;;;;;;19.27;10.37;;;-0.10;99.90;;;;;;5076149;28;20211;-78
2023/12/05 04:53:18;;;;;;;14.63;10.73;;;-0.60;99.90;;;;;;5076656;28;20180;-77
2023/12/05 04:55:44;;;;;;;13.93;10.00;;;-0.60;99.90;;;;;;5079089;28;20307;-77
2023/12/05 04:58:09;;;;;;;17.17;10.77;;;-0.70;99.90;;;;;;5087758;28;20177;-77
2023/12/05 05:00:36;;;;;;;15.73;10.83;;;-0.70;99.90;;;;;;5088822;28;20191;-77
2023/12/05 05:03:03;;;;;;;18.47;10.60;;;-0.70;99.90;;;;;;5091799;28;20232;-76
2023/12/05 05:05:28;;;;;;;16.17;10.63;;;-0.80;99.90;;;;;;5087333;28;20347;-78
2023/12/05 05:07:54;;;;;;;17.43;11.13;;;-0.20;99.90;;;;;;5077220;28;20260;-77
2023/12/05 05:10:20;;;;;;;17.87;11.20;;;-0.80;99.90;;;;;;5059443;28;20682;-78
2023/12/05 05:12:45;;;;;;;24.10;11.37;;;-0.80;99.90;;;;;;5064060;28;20253;-78
2023/12/05 05:15:11;;;;;;;16.07;11.20;;;-0.80;99.90;;;;;;5059078;28;20697;-79
2023/12/05 05:17:37;;;;;;;17.17;11.07;;;-0.80;99.90;;;;;;5076563;28;20203;-78
2023/12/05 05:20:03;;;;;;;19.27;10.90;;;-0.80;99.90;;;;;;5075835;28;20173;-79
2023/12/05 05:22:29;;;;;;;21.67;12.03;;;-0.90;99.90;;;;;;5078834;28;20180;-77
2023/12/05 05:24:54;;;;;;;16.73;10.73;;;-0.90;99.90;;;;;;5077071;28;20246;-78
2023/12/05 05:27:21;;;;;;;19.07;11.07;;;-0.80;99.90;;;;;;5075397;28;20580;-77
2023/12/05 05:29:46;;;;;;;17.57;11.37;;;-0.90;99.90;;;;;;5075830;28;20172;-79
2023/12/05 05:32:12;;;;;;;16.63;11.30;;;-1.00;99.90;;;;;;5075343;28;20214;-78
2023/12/05 05:34:38;;;;;;;15.17;10.67;;;-1.00;99.90;;;;;;5075965;28;20168;-79
2023/12/05 05:37:04;;;;;;;18.67;11.17;;;-1.00;99.90;;;;;;5074733;28;20176;-78
2023/12/05 05:39:29;;;;;;;15.63;10.10;;;-1.00;99.90;;;;;;5074886;28;20204;-77
2023/12/05 05:41:55;;;;;;;15.50;10.40;;;-1.00;99.90;;;;;;5074825;28;20649;-76
2023/12/05 05:44:21;;;;;;;17.07;11.30;;;-1.00;99.90;;;;;;5074910;28;20258;-79
2023/12/05 05:46:47;;;;;;;17.40;11.13;;;-1.10;99.90;;;;;;5075663;28;20181;-78
2023/12/05 05:49:13;;;;;;;18.37;10.80;;;-1.00;99.90;;;;;;5076521;28;20199;-76
2023/12/05 05:51:39;;;;;;;14.97;10.97;;;-1.10;99.90;;;;;;5079379;28;20672;-77
2023/12/05 05:54:05;;;;;;;14.67;10.60;;;-1.10;99.90;;;;;;5077639;28;20169;-78
2023/12/05 05:56:36;;;;;;;16.30;10.77;;;-1.20;99.90;;;;;;5076565;28;20167;-78
2023/12/05 05:59:02;;;;;;;15.13;10.77;;;-1.20;99.90;;;;;;5080340;28;20159;-76
2023/12/05 06:01:28;;;;;;;19.07;11.07;;;-1.20;99.90;;;;;;5093686;28;20176;-76
2023/12/05 06:03:54;;;;;;;18.23;11.70;;;-1.20;99.90;;;;;;5075610;28;20216;-79
2023/12/05 06:06:19;;;;;;;14.97;10.40;;;-1.30;99.90;;;;;;5073477;28;20176;-77
2023/12/05 06:08:45;;;;;;;16.10;10.73;;;-1.30;99.90;;;;;;5074246;28;20689;-78
2023/12/05 06:11:11;;;;;;;19.73;11.03;;;-1.30;99.90;;;;;;5074659;28;20304;-76
2023/12/05 06:13:37;;;;;;;14.80;10.47;;;-1.20;99.90;;;;;;5074388;28;20184;-78
2023/12/05 06:16:03;;;;;;;18.33;10.80;;;-1.20;99.90;;;;;;5073839;28;20183;-77
2023/12/05 06:18:28;;;;;;;14.23;10.87;;;-1.10;99.90;;;;;;5074095;28;20176;-78
2023/12/05 06:20:56;;;;;;;15.47;10.73;;;-1.20;99.90;;;;;;5074566;28;20164;-78
2023/12/05 06:23:22;;;;;;;16.87;12.27;;;-1.30;99.90;;;;;;5074497;28;20285;-78
2023/12/05 06:25:47;;;;;;;16.70;11.33;;;-1.30;99.90;;;;;;5074287;28;20216;-76
2023/12/05 06:28:16;;;;;;;18.33;11.93;;;-1.20;99.90;;;;;;5076021;28;20499;-78
2023/12/05 06:30:42;;;;;;;20.67;11.93;;;-1.00;99.90;;;;;;5084845;28;20177;-78
2023/12/05 06:33:08;;;;;;;18.60;11.10;;;-1.40;99.90;;;;;;5077855;28;20232;-78
2023/12/05 06:35:34;;;;;;;14.90;10.87;;;-1.30;99.90;;;;;;5061690;28;20248;-77
2023/12/05 06:37:59;;;;;;;17.53;11.30;;;-1.30;99.90;;;;;;5081980;28;20172;-78
2023/12/05 06:40:25;;;;;;;15.93;10.60;;;-1.20;99.90;;;;;;5078709;28;20892;-78
2023/12/05 06:42:51;;;;;;;17.27;11.30;;;-1.20;99.90;;;;;;5075249;28;20188;-78
2023/12/05 06:45:17;;;;;;;20.87;12.13;;;-1.30;99.90;;;;;;5075588;28;20176;-77
2023/12/05 06:47:43;;;;;;;17.60;11.07;;;-1.30;99.90;;;;;;5081074;28;20191;-75
2023/12/05 06:50:12;;;;;;;18.17;11.23;;;-1.20;99.90;;;;;;5085378;28;20259;-76
2023/12/05 06:52:39;;;;;;;17.77;11.53;;;-1.20;99.90;;;;;;5084699;28;20208;-78
2023/12/05 06:55:06;;;;;;;16.37;10.90;;;-1.10;99.90;;;;;;5087752;28;20173;-77
2023/12/05 06:57:32;;;;;;;17.93;11.17;;;-1.10;99.90;;;;;;5086140;28;20241;-78
2023/12/05 06:59:58;;;;;;;16.47;10.97;;;-1.00;99.90;;;;;;5074715;28;20276;-76
2023/12/05 07:02:23;;;;;;;15.17;10.53;;;-0.90;99.90;;;;;;5074277;28;20177;-77
2023/12/05 07:04:49;;;;;;;17.03;9.97;;;-0.80;99.90;;;;;;5074363;28;20647;-76
2023/12/05 07:07:16;;;;;;;14.90;10.53;;;-0.70;99.90;;;;;;5073666;28;20212;-77
2023/12/05 07:09:42;;;;;;;17.27;11.67;;;-0.50;99.90;;;;;;5074034;28;20265;-77
2023/12/05 07:12:08;;;;;;;16.10;10.87;;;-0.30;99.90;;;;;;5073631;28;20264;-77
2023/12/05 07:14:36;;;;;;;17.00;11.40;;;-0.40;99.90;;;;;;5073920;28;20692;-77
2023/12/05 07:17:02;;;;;;;17.03;11.37;;;-0.30;99.90;;;;;;5073577;28;20176;-77
2023/12/05 07:19:28;;;;;;;13.43;10.83;;;-0.30;99.90;;;;;;5076784;28;20228;-77
2023/12/05 07:21:54;;;;;;;16.63;11.37;;;-0.40;99.90;;;;;;5078206;28;20180;-79
2023/12/05 07:24:20;;;;;;;21.70;11.43;;;-0.40;99.90;;;;;;5078134;28;20522;-78
2023/12/05 07:26:48;;;;;;;17.83;11.63;;;-0.50;99.90;;;;;;5078978;28;20526;-78
2023/12/05 07:29:14;;;;;;;16.87;10.73;;;-0.40;99.90;;;;;;5078306;28;20161;-77
2023/12/05 07:31:40;;;;;;;13.23;10.50;;;-0.50;99.90;;;;;;5094444;28;20283;-77
2023/12/05 07:34:05;;;;;;;17.97;10.97;;;-0.40;99.90;;;;;;5097055;28;20203;-75
2023/12/05 07:36:31;;;;;;;15.97;10.20;;;-0.50;99.90;;;;;;5081336;28;20182;-76
2023/12/05 07:38:57;;;;;;;14.50;10.40;;;-0.50;99.90;;;;;;5088113;28;20233;-79
2023/12/05 07:41:23;;;;;;;16.63;11.20;;;-0.50;99.90;;;;;;5079973;28;20227;-77
2023/12/05 07:43:51;;;;;;;16.43;11.07;;;-0.50;99.90;;;;;;5079796;28;20209;-76
2023/12/05 07:46:18;;;;;;;18.77;12.10;;;-0.50;99.90;;;;;;5060230;28;20220;-77
2023/12/05 07:48:44;;;;;;;17.03;11.73;;;-0.60;99.90;;;;;;5086802;28;20177;-79
2023/12/05 07:51:17;;;;;;;21.40;12.10;;;-0.60;99.90;;;;;;5078129;28;20216;-78
2023/12/05 07:53:44;;;;;;;17.60;11.83;;;-0.60;99.90;;;;;;5059873;28;20163;-79
2023/12/05 07:56:10;;;;;;;20.40;11.87;;;-0.70;99.90;;;;;;5078242;28;20602;-77
2023/12/05 07:58:36;;;;;;;18.87;12.60;;;-0.60;99.90;;;;;;5065085;28;20185;-77
2023/12/05 08:01:02;;;;;;;20.03;12.60;;;-0.60;99.90;;;;;;5087332;28;20186;-78
2023/12/05 08:03:28;;;;;;;16.73;12.20;;;-0.60;99.90;;;;;;5087959;28;20181;-77
2023/12/05 08:05:54;;;;;;;20.43;12.83;;;-0.60;99.90;;;;;;5060469;28;20181;-76
2023/12/05 08:08:20;;;;;;;21.57;12.50;;;-0.50;99.90;;;;;;5077273;28;20235;-76
2023/12/05 08:10:52;;;;;;;21.70;13.10;;;-0.50;99.90;;;;;;5077859;28;20189;-75
2023/12/05 08:13:18;;;;;;;19.60;12.27;;;-0.60;99.90;;;;;;5060690;28;20237;-77
2023/12/05 08:15:44;;;;;;;21.90;14.23;;;-0.70;99.90;;;;;;5083781;28;20188;-78
2023/12/05 08:18:10;;;;;;;21.93;13.50;;;-0.70;99.90;;;;;;5087815;28;20174;-77
2023/12/05 08:20:35;;;;;;;20.17;13.07;;;-0.70;99.90;;;;;;5061944;28;20203;-78
2023/12/05 08:23:01;;;;;;;23.97;12.70;;;-0.60;99.90;;;;;;5078370;28;20219;-76
2023/12/05 08:25:27;;;;;;;22.20;13.63;;;-0.50;99.90;;;;;;5059488;28;20310;-76
2023/12/05 08:27:53;;;;;;;24.03;13.73;;;-0.50;99.90;;;;;;5076504;28;20171;-79
2023/12/05 08:30:18;;;;;;;20.77;13.27;;;-0.40;99.90;;;;;;5076222;28;20717;-77
2023/12/05 08:32:44;;;;;;;20.03;12.30;;;-0.40;99.90;;;;;;5076953;28;20726;-78
2023/12/05 08:35:10;;;;;;;19.97;13.73;;;-0.40;99.90;;;;;;5077214;28;20183;-78
2023/12/05 08:37:36;;;;;;;22.27;14.53;;;-0.40;99.90;;;;;;5076501;28;20583;-77
2023/12/05 08:40:02;;;;;;;22.57;13.87;;;-0.30;99.90;;;;;;5075954;28;20195;-77
2023/12/05 08:42:28;;;;;;;21.83;14.03;;;-0.30;99.90;;;;;;5076329;28;20180;-77
2023/12/05 08:44:54;;;;;;;26.13;14.33;;;-0.30;99.90;;;;;;5075857;28;20712;-79
2023/12/05 08:47:20;;;;;;;18.30;13.23;;;-0.30;99.90;;;;;;5076079;28;20682;-77
2023/12/05 08:49:46;;;;;;;19.23;13.20;;;-0.30;99.90;;;;;;5075671;28;20239;-76
2023/12/05 08:52:12;;;;;;;21.50;14.27;;;-0.20;99.90;;;;;;5075288;28;20341;-78
2023/12/05 08:54:38;;;;;;;19.90;13.93;;;-0.20;99.90;;;;;;5075465;28;20188;-76
2023/12/05 08:57:04;;;;;;;23.23;14.10;;;-0.20;99.90;;;;;;5075819;28;20188;-77
2023/12/05 08:59:30;;;;;;;24.17;14.40;;;-0.30;99.90;;;;;;5075728;28;20601;-77
2023/12/05 09:01:55;;;;;;;19.90;13.50;;;-0.40;99.90;;;;;;5057534;28;20177;-76
2023/12/05 09:04:21;;;;;;;21.47;14.83;;;-0.20;99.90;;;;;;5075647;28;20571;-76
2023/12/05 09:06:47;;;;;;;21.37;14.27;;;-0.20;99.90;;;;;;5085474;28;20593;-76
2023/12/05 09:09:12;;;;;;;21.43;14.57;;;-0.20;99.90;;;;;;5076429;28;20228;-76
2023/12/05 09:11:38;;;;;;;24.00;15.30;;;-0.10;99.90;;;;;;5075627;28;20226;-76
2023/12/05 09:14:05;;;;;;;19.00;13.83;;;0.00;99.90;;;;;;5076065;28;20178;-75
2023/12/05 09:16:31;;;;;;;21.10;14.30;;;0.10;99.90;;;;;;5075788;28;20252;-77
2023/12/05 09:18:57;;;;;;;25.40;14.60;;;0.20;99.90;;;;;;5075215;28;20250;-76
2023/12/05 09:21:23;;;;;;;23.70;15.20;;;0.20;99.90;;;;;;5057734;28;20627;-77
2023/12/05 09:23:49;;;;;;;21.43;14.17;;;0.30;99.90;;;;;;5057697;28;20184;-77
2023/12/05 09:26:15;;;;;;;18.63;13.73;;;0.30;99.90;;;;;;5056500;28;20292;-77
2023/12/05 09:28:41;;;;;;;24.57;14.50;;;0.30;99.90;;;;;;5057887;28;20189;-77
2023/12/05 09:31:07;;;;;;;19.20;14.40;;;0.40;99.90;;;;;;5077497;28;20213;-76
2023/12/05 09:33:35;;;;;;;25.27;14.87;;;0.50;99.90;;;;;;5076236;28;20181;-77
2023/12/05 09:36:00;;;;;;;17.23;12.20;;;0.60;99.90;;;;;;5074731;28;20710;-78
2023/12/05 09:38:26;;;;;;;19.53;13.37;;;0.70;99.90;;;;;;5074567;28;20281;-77
2023/12/05 09:40:52;;;;;;;18.43;14.20;;;0.90;99.90;;;;;;5074824;28;20542;-76
2023/12/05 09:43:24;;;;;;;24.13;13.43;;;0.90;99.90;;;;;;5074589;28;20165;-78
2023/12/05 09:45:59;;;;;;;25.93;14.47;;;0.90;99.90;;;;;;5075020;28;20168;-78
2023/12/05 09:48:31;;;;;;;18.70;13.30;;;0.90;99.90;;;;;;5075170;28;20169;-78
2023/12/05 09:50:57;;;;;;;19.10;13.90;;;1.00;99.90;;;;;;5074645;28;20206;-76
2023/12/05 09:53:25;;;;;;;22.67;14.50;;;1.10;99.90;;;;;;5076389;28;20626;-77
2023/12/05 09:55:51;;;;;;;19.67;13.40;;;1.20;99.90;;;;;;5086540;28;20185;-77
2023/12/05 09:58:17;;;;;;;21.47;14.40;;;1.30;99.90;;;;;;5075528;28;20256;-76
2023/12/05 10:00:44;;;;;;;20.47;13.97;;;1.30;99.90;;;;;;5058930;28;20579;-76
2023/12/05 10:03:13;;;;;;;20.07;13.93;;;1.40;99.90;;;;;;5085515;28;20159;-80
2023/12/05 10:05:42;;;;;;;22.07;14.73;;;1.10;99.90;;;;;;5088297;28;20167;-78
2023/12/05 10:08:09;;;;;;;23.83;14.67;;;1.20;99.90;;;;;;5075916;28;20218;-75
2023/12/05 10:10:39;;;;;;;21.33;14.57;;;1.20;99.90;;;;;;5074536;28;20179;-76
2023/12/05 10:13:05;;;;;;;22.70;14.80;;;1.20;99.90;;;;;;5073977;28;20211;-78
2023/12/05 10:15:32;;;;;;;21.77;15.30;;;1.20;99.90;;;;;;5074380;28;20185;-79
2023/12/05 10:17:59;;;;;;;19.60;14.27;;;1.10;99.90;;;;;;5074127;28;20179;-78
2023/12/05 10:20:24;;;;;;;21.67;14.97;;;1.20;99.90;;;;;;5055894;28;20177;-76
2023/12/05 10:22:51;;;;;;;28.97;14.53;;;1.40;99.90;;;;;;5074280;28;20183;-78
2023/12/05 10:25:18;;;;;;;23.00;14.87;;;1.50;99.90;;;;;;5081958;28;20198;-77
2023/12/05 10:27:44;;;;;;;24.63;14.93;;;1.50;99.90;;;;;;5080210;28;20219;-77
2023/12/05 10:30:11;;;;;;;23.67;14.93;;;1.60;99.90;;;;;;5057351;28;20180;-78
2023/12/05 10:32:38;;;;;;;20.53;13.57;;;1.60;99.90;;;;;;5074607;28;20218;-76
2023/12/05 10:35:04;;;;;;;21.27;14.17;;;1.80;99.90;;;;;;5074174;28;20176;-76
2023/12/05 10:37:30;;;;;;;23.53;13.93;;;1.70;99.90;;;;;;5074653;28;20245;-77
2023/12/05 10:39:58;;;;;;;20.53;13.70;;;1.70;99.90;;;;;;5074386;28;20633;-76
2023/12/05 10:42:26;;;;;;;21.87;13.93;;;1.90;99.90;;;;;;5074177;28;20172;-77
2023/12/05 10:44:52;;;;;;;21.33;14.07;;;1.80;99.90;;;;;;5074312;28;20178;-77
2023/12/05 10:47:18;;;;;;;23.47;15.07;;;1.80;99.90;;;;;;5074321;28;20179;-76
2023/12/05 10:49:44;;;;;;;18.83;12.80;;;1.80;99.90;;;;;;5055098;28;20223;-76
2023/12/05 10:52:13;;;;;;;20.60;14.23;;;1.80;99.90;;;;;;5074095;28;20206;-76
2023/12/05 10:54:40;;;;;;;19.97;14.20;;;1.80;99.90;;;;;;5056149;28;20179;-76
2023/12/05 10:57:09;;;;;;;22.63;14.60;;;2.00;99.90;;;;;;5074521;28;20201;-76
2023/12/05 10:59:42;;;;;;;25.20;15.30;;;1.90;99.90;;;;;;5074067;28;20182;-77
2023/12/05 11:02:13;;;;;;;22.30;14.93;;;1.90;99.90;;;;;;5056001;28;20278;-77
2023/12/05 11:04:41;;;;;;;23.03;14.43;;;2.00;99.90;;;;;;5074580;28;20163;-76
2023/12/05 11:07:10;;;;;;;21.63;14.10;;;2.00;99.90;;;;;;5057189;28;20192;-76
2023/12/05 11:09:41;;;;;;;23.73;13.67;;;2.00;99.90;;;;;;5076733;28;20210;-76
2023/12/05 11:12:08;;;;;;;20.47;14.03;;;2.10;99.90;;;;;;5073395;28;20682;-76
2023/12/05 11:14:42;;;;;;;23.07;14.03;;;2.10;99.90;;;;;;5073927;28;20180;-76
2023/12/05 11:17:20;;;;;;;18.90;13.93;;;2.10;99.90;;;;;;5056431;28;20177;-77
2023/12/05 11:20:01;;;;;;;20.07;13.90;;;2.20;99.90;;;;;;5073843;28;20160;-76
2023/12/05 11:23:05;;;;;;;21.73;14.23;;;2.20;99.90;;;;;;5055714;28;20192;-76
2023/12/05 11:25:53;;;;;;;21.40;13.70;;;2.20;99.90;;;;;;5073651;28;20225;-75
2023/12/05 11:28:47;;;;;;;25.20;14.73;;;2.10;99.90;;;;;;5074708;28;20168;-78
2023/12/05 11:31:29;;;;;;;24.20;15.13;;;1.90;99.90;;;;;;5073870;28;20201;-76
2023/12/05 11:34:24;;;;;;;21.43;14.10;;;1.90;99.90;;;;;;5074766;28;20170;-76
2023/12/05 11:36:56;;;;;;;20.67;14.07;;;2.00;99.90;;;;;;5075335;28;20163;-76
2023/12/05 11:39:22;;;;;;;20.93;13.97;;;2.20;99.90;;;;;;5074426;28;20639;-76
2023/12/05 11:42:10;;;;;;;18.43;13.23;;;2.40;99.90;;;;;;5074376;28;20176;-76
2023/12/05 11:44:42;;;;;;;20.20;13.20;;;2.50;99.90;;;;;;5075384;28;20250;-76
2023/12/05 11:47:26;;;;;;;17.43;12.07;;;2.70;99.90;;;;;;5057071;28;20171;-78
2023/12/05 11:50:14;;;;;;;18.83;12.77;;;2.80;99.90;;;;;;5072681;28;20183;-75
2023/12/05 11:52:40;;;;;;;19.13;13.27;;;2.80;99.90;;;;;;5055679;28;20219;-76
2023/12/05 11:55:08;;;;;;;22.00;13.87;;;2.80;99.90;;;;;;5073850;28;20169;-75
2023/12/05 11:57:34;;;;;;;16.47;12.30;;;2.80;99.90;;;;;;5055793;28;20673;-76
2023/12/05 12:00:00;;;;;;;18.40;12.90;;;2.80;99.90;;;;;;5056333;28;20269;-75
2023/12/05 12:02:32;;;;;;;18.63;12.83;;;2.80;99.90;;;;;;5055412;28;20188;-76
2023/12/05 12:05:06;;;;;;;20.90;13.33;;;2.90;99.90;;;;;;5058247;28;20180;-77
2023/12/05 12:07:41;;;;;;;16.20;12.23;;;2.90;99.90;;;;;;5080439;28;20225;-76
2023/12/05 12:10:08;;;;;;;20.23;13.37;;;3.00;99.90;;;;;;5113241;28;20176;-76
2023/12/05 12:12:35;;;;;;;17.83;12.37;;;3.00;99.90;;;;;;5102728;28;20320;-77
2023/12/05 12:15:01;;;;;;;18.37;12.20;;;3.10;99.90;;;;;;5100920;28;20670;-76
2023/12/05 12:17:27;;;;;;;19.07;12.07;;;3.00;99.90;;;;;;5098284;28;20231;-77
2023/12/05 12:19:53;;;;;;;16.60;12.27;;;3.10;99.90;;;;;;5097724;28;20187;-76
2023/12/05 12:22:20;;;;;;;17.77;12.07;;;3.10;99.90;;;;;;5098114;28;20176;-76
2023/12/05 12:24:46;;;;;;;18.10;12.90;;;3.10;99.90;;;;;;5098325;28;20178;-77
2023/12/05 12:27:12;;;;;;;20.40;12.77;;;3.00;99.90;;;;;;5098081;28;20261;-75
2023/12/05 12:29:38;;;;;;;19.93;13.57;;;3.10;99.90;;;;;;5109499;28;20158;-74
2023/12/05 12:32:09;;;;;;;22.40;12.67;;;3.10;99.90;;;;;;5117277;28;20207;-76
2023/12/05 12:34:36;;;;;;;22.93;13.87;;;3.10;99.90;;;;;;5105533;28;20179;-74